Aviation Digital Data Service (ADDS)

Output produced by METARs form (0347 UTC 02 July 2016)
found at http://www.aviationweather.gov/adds/metars/
 
KDOV 020258Z AUTO 24006KT 10SM BKN120 BKN140 OVC180 23/22 A2988 RMK AO2 SLP121 60003 T02270220 50002 VISNO RWY19 CHINO RWY19 $
TAF AMD KDOV 020303Z 0203/0306 23006KT 9000 -SHRA OVC025 QNH2985INS 
     TEMPO 0203/0205 24015G20KT 6000 -TSRA BKN025CB OVC040 
     BECMG 0204/0205 25006KT 9999 NSW FEW025 SCT150 QNH2986INS 
     BECMG 0207/0208 31009KT 9999 FEW150 QNH2990INS 
     BECMG 0214/0215 32012G18KT 9999 FEW250 QNH2998INS 
     BECMG 0300/0301 32006KT 9999 FEW250 QNH3001INS TX29/0220Z TN20/0210Z